Dobrodošli na spletni strani vremenske postaje Senovo. Vse informacije so informativnega značaja, saj vremenska postaja ni del državne mreže meteoroloških postaj. OBVESTILO: Letni količini padavin navedeni na spletni strani je potrebno prišteti 98,1 mm, zaradi izgube podatkov.


Posebna pozornost v zvezi z vremenskimi dogajanji ni potrebna.    Posebna pozornost v zvezi z vremenskimi dogajanji ni potrebna.

Pogled proti Armezu več informacij Pogled proti Armezu


Lisca več informacij Lisca


Radar strel več informacij blitzortung!


Radar padavin več informacij rain snow radar


Obiščite še:

Template documentation
and downloads

And another site



Weather Underground, zgodovina - Tekstovno

Dnevni povzetek za Avgust 21, 2017 Enote:  Metrično    Angleško   Obe
« Predhodni Dan
Naslednji Dan »
Dnevni Tedenski Mesečni Letni Po meri
  Višja: Nižja: Povprečje:
Temperatura: 24.5 °C 8.3 °C 16.1 °C
Točka rosišča: 14.3 °C 6.9 °C 9 °C
Vlažnost: 95 % 37 % 67 %
Hitrost vetra: 8.2 km/h 0.0 km/h 2.2 km/h
Sunki vetra: 19.8 km/h - -
Veter:- - SE
Zračni tlak: 1022.9 hPa 1018.8 hPa -
Padavine: 0.0 mm    
Historical Graphs
 
 
Tabelarni podarki za Avgust 21, 2017
Čas Temperatura Točka rosišča Zračni tlak Veter Hitrost vetra Sunki vetra Vlažnost Intenziteta padavin (urna)
00:01 12.8 °C 10.2 °C 1021.9 hPa Calm     84 % 0.0 mm
00:06 12.6 °C 9.9 °C 1021.9 hPa Calm     84 % 0.0 mm
00:11 12.5 °C 9.9 °C 1021.9 hPa SW 1.0 km/h 4.3 km/h 84 % 0.0 mm
00:16 12.4 °C 9.9 °C 1021.9 hPa West 1.6 km/h 4.3 km/h 85 % 0.0 mm
00:21 12.4 °C 9.9 °C 1021.9 hPa NW 0.8 km/h 4.0 km/h 85 % 0.0 mm
00:26 12.3 °C 9.8 °C 1021.9 hPa WNW 0.2 km/h 1.8 km/h 85 % 0.0 mm
00:31 12.2 °C 9.8 °C 1021.9 hPa Calm   1.8 km/h 85 % 0.0 mm
00:36 12.1 °C 9.7 °C 1020.9 hPa Calm     85 % 0.0 mm
00:41 12.0 °C 9.6 °C 1020.9 hPa North 0.6 km/h 5.8 km/h 85 % 0.0 mm
00:46 11.9 °C 9.6 °C 1020.9 hPa NW 2.3 km/h 5.8 km/h 86 % 0.0 mm
00:51 11.8 °C 9.6 °C 1021.9 hPa WNW 1.9 km/h 5.5 km/h 86 % 0.0 mm
00:56 11.8 °C 9.6 °C 1021.9 hPa NW 0.5 km/h 4.7 km/h 86 % 0.0 mm
01:01 11.7 °C 9.4 °C 1021.9 hPa NW 0.3 km/h 2.1 km/h 86 % 0.0 mm
01:06 11.6 °C 9.3 °C 1021.9 hPa WNW 0.6 km/h 3.5 km/h 86 % 0.0 mm
01:11 11.5 °C 9.2 °C 1021.9 hPa WNW 0.6 km/h 3.5 km/h 86 % 0.0 mm
01:16 11.4 °C 9.3 °C 1021.9 hPa Calm     87 % 0.0 mm
01:21 11.3 °C 9.2 °C 1020.9 hPa Calm     87 % 0.0 mm
01:26 11.3 °C 9.1 °C 1020.9 hPa NE 0.2 km/h 2.1 km/h 86 % 0.0 mm
01:31 11.2 °C 9.1 °C 1020.9 hPa NNE 0.5 km/h 2.6 km/h 87 % 0.0 mm
01:32 11.2 °C 9.1 °C 1021.9 hPa NNE 0.5 km/h 2.6 km/h 87 % 0.0 mm
01:37 11.1 °C 9.2 °C 1021.9 hPa NE 0.3 km/h 2.6 km/h 88 % 0.0 mm
01:42 11.0 °C 8.9 °C 1021.9 hPa Calm     87 % 0.0 mm
01:47 10.9 °C 9.0 °C 1021.9 hPa Calm     88 % 0.0 mm
01:52 10.9 °C 9.0 °C 1021.9 hPa Calm     88 % 0.0 mm
01:57 10.8 °C 8.9 °C 1021.9 hPa Calm     88 % 0.0 mm
02:02 10.7 °C 8.9 °C 1021.9 hPa Calm     89 % 0.0 mm
02:07 10.6 °C 8.9 °C 1021.9 hPa Calm     89 % 0.0 mm
02:12 10.6 °C 8.9 °C 1021.9 hPa Calm     89 % 0.0 mm
02:17 10.5 °C 8.8 °C 1021.9 hPa Calm     89 % 0.0 mm
02:22 10.5 °C 8.8 °C 1021.9 hPa Calm     89 % 0.0 mm
02:27 10.4 °C 8.7 °C 1021.9 hPa Calm     89 % 0.0 mm
02:32 10.3 °C 8.6 °C 1021.9 hPa Calm     89 % 0.0 mm
02:37 10.2 °C 8.4 °C 1021.9 hPa Calm     89 % 0.0 mm
02:42 10.1 °C 8.4 °C 1021.9 hPa Calm     89 % 0.0 mm
02:47 10.1 °C 8.6 °C 1021.9 hPa Calm     90 % 0.0 mm
02:52 10.1 °C 8.6 °C 1021.9 hPa Calm     90 % 0.0 mm
02:57 10.0 °C 8.4 °C 1021.9 hPa Calm     90 % 0.0 mm
03:02 9.9 °C 8.3 °C 1021.9 hPa NW 0.3 km/h 3.5 km/h 90 % 0.0 mm
03:07 9.9 °C 8.3 °C 1021.9 hPa WNW 0.6 km/h 4.0 km/h 90 % 0.0 mm
03:12 9.8 °C 8.2 °C 1021.9 hPa West 0.6 km/h 4.0 km/h 90 % 0.0 mm
03:17 9.8 °C 8.2 °C 1021.9 hPa West 0.3 km/h 3.2 km/h 90 % 0.0 mm
03:22 9.7 °C 8.3 °C 1021.9 hPa NW 0.5 km/h 4.3 km/h 91 % 0.0 mm
03:27 9.7 °C 8.3 °C 1021.9 hPa NNW 0.5 km/h 4.3 km/h 91 % 0.0 mm
03:32 9.7 °C 8.3 °C 1021.9 hPa Calm     91 % 0.0 mm
03:37 9.6 °C 8.2 °C 1021.9 hPa Calm     91 % 0.0 mm
03:42 9.5 °C 8.1 °C 1021.9 hPa Calm     91 % 0.0 mm
03:47 9.5 °C 8.1 °C 1021.9 hPa Calm     91 % 0.0 mm
03:52 9.4 °C 8.0 °C 1021.9 hPa Calm     91 % 0.0 mm
03:57 9.4 °C 8.0 °C 1021.9 hPa Calm     91 % 0.0 mm
04:02 9.3 °C 7.9 °C 1020.9 hPa Calm     91 % 0.0 mm
04:07 9.3 °C 7.9 °C 1020.9 hPa Calm     91 % 0.0 mm
04:12 9.3 °C 7.9 °C 1020.9 hPa Calm     91 % 0.0 mm
04:17 9.2 °C 7.8 °C 1021.9 hPa Calm     91 % 0.0 mm
04:22 9.1 °C 7.7 °C 1021.9 hPa Calm     91 % 0.0 mm
04:27 9.1 °C 7.9 °C 1021.9 hPa NNW 0.2 km/h 3.2 km/h 92 % 0.0 mm
04:32 9.1 °C 7.9 °C 1021.9 hPa NNW 0.2 km/h 3.2 km/h 92 % 0.0 mm
04:37 9.0 °C 7.8 °C 1021.9 hPa Calm     92 % 0.0 mm
04:42 8.9 °C 7.7 °C 1021.9 hPa Calm   2.1 km/h 92 % 0.0 mm
04:47 9.0 °C 7.8 °C 1021.9 hPa NNW 0.2 km/h 2.1 km/h 92 % 0.0 mm
04:52 8.9 °C 7.7 °C 1021.9 hPa North 0.2 km/h   92 % 0.0 mm
04:57 8.8 °C 7.6 °C 1021.9 hPa Calm     92 % 0.0 mm
05:02 8.8 °C 7.6 °C 1020.9 hPa Calm     92 % 0.0 mm
05:07 8.8 °C 7.7 °C 1020.9 hPa Calm     93 % 0.0 mm
05:12 8.8 °C 7.7 °C 1020.9 hPa Calm     93 % 0.0 mm
05:17 8.7 °C 7.6 °C 1022.9 hPa Calm     93 % 0.0 mm
05:22 8.7 °C 7.6 °C 1022.9 hPa Calm     93 % 0.0 mm
05:28 8.7 °C 7.6 °C 1022.9 hPa Calm     93 % 0.0 mm
05:33 8.6 °C 7.6 °C 1022.9 hPa Calm     93 % 0.0 mm
05:38 8.6 °C 7.6 °C 1022.9 hPa Calm   1.8 km/h 93 % 0.0 mm
05:43 8.6 °C 7.6 °C 1022.9 hPa NW 0.2 km/h 3.2 km/h 93 % 0.0 mm
05:48 8.5 °C 7.4 °C 1021.9 hPa NW 0.2 km/h 3.2 km/h 93 % 0.0 mm
05:53 8.5 °C 7.4 °C 1021.9 hPa Calm     93 % 0.0 mm
05:58 8.5 °C 7.4 °C 1021.9 hPa Calm     93 % 0.0 mm
06:03 8.5 °C 7.4 °C 1021.9 hPa Calm     93 % 0.0 mm
06:08 8.4 °C 7.3 °C 1021.9 hPa Calm     93 % 0.0 mm
06:13 8.4 °C 7.3 °C 1021.9 hPa Calm     93 % 0.0 mm
06:18 8.3 °C 7.2 °C 1021.9 hPa Calm     93 % 0.0 mm
06:23 8.4 °C 7.5 °C 1021.9 hPa Calm     94 % 0.0 mm
06:28 8.3 °C 7.4 °C 1021.9 hPa Calm     94 % 0.0 mm
06:33 8.3 °C 7.4 °C 1020.9 hPa Calm     94 % 0.0 mm
06:38 8.4 °C 7.5 °C 1020.9 hPa Calm     94 % 0.0 mm
06:43 8.4 °C 7.5 °C 1020.9 hPa Calm     94 % 0.0 mm
06:48 8.4 °C 7.5 °C 1020.9 hPa Calm     94 % 0.0 mm
06:53 8.5 °C 7.6 °C 1020.9 hPa Calm     94 % 0.0 mm
06:58 8.5 °C 7.6 °C 1020.9 hPa Calm     94 % 0.0 mm
07:03 8.6 °C 7.7 °C 1021.9 hPa Calm     94 % 0.0 mm
07:08 8.7 °C 7.9 °C 1021.9 hPa Calm     95 % 0.0 mm
07:13 8.8 °C 8.1 °C 1021.9 hPa Calm     95 % 0.0 mm
07:18 8.9 °C 8.2 °C 1021.9 hPa Calm     95 % 0.0 mm
07:23 9.1 °C 8.2 °C 1021.9 hPa Calm     94 % 0.0 mm
07:28 9.3 °C 8.4 °C 1021.9 hPa Calm     94 % 0.0 mm
07:33 9.4 °C 8.7 °C 1021.9 hPa Calm     95 % 0.0 mm
07:38 9.6 °C 8.8 °C 1021.9 hPa Calm     95 % 0.0 mm
07:43 9.8 °C 9.1 °C 1021.9 hPa Calm     95 % 0.0 mm
07:48 10.0 °C 9.2 °C 1021.9 hPa East 0.3 km/h 3.5 km/h 95 % 0.0 mm
07:53 10.4 °C 9.6 °C 1021.9 hPa East 1.3 km/h 3.5 km/h 95 % 0.0 mm
07:58 10.8 °C 10.1 °C 1021.9 hPa East 1.8 km/h 3.5 km/h 95 % 0.0 mm
08:03 11.0 °C 10.1 °C 1022.9 hPa East 2.1 km/h 4.0 km/h 94 % 0.0 mm
08:08 11.3 °C 10.4 °C 1022.9 hPa East 1.6 km/h 4.0 km/h 94 % 0.0 mm
08:13 11.6 °C 10.7 °C 1022.9 hPa East 1.1 km/h 3.5 km/h 94 % 0.0 mm
08:18 12.0 °C 10.9 °C 1021.9 hPa East 1.4 km/h 3.5 km/h 93 % 0.0 mm
08:23 12.3 °C 11.2 °C 1021.9 hPa East 1.0 km/h 3.5 km/h 93 % 0.0 mm
08:28 12.6 °C 11.3 °C 1021.9 hPa East 0.3 km/h 2.1 km/h 92 % 0.0 mm
08:33 13.0 °C 11.6 °C 1020.9 hPa ESE 0.2 km/h 2.6 km/h 91 % 0.0 mm
08:38 13.4 °C 11.9 °C 1020.9 hPa East 0.3 km/h 2.6 km/h 91 % 0.0 mm
08:43 13.8 °C 12.2 °C 1020.9 hPa East 0.2 km/h 2.6 km/h 90 % 0.0 mm
08:48 14.3 °C 12.5 °C 1021.9 hPa ESE 1.4 km/h 4.7 km/h 89 % 0.0 mm
08:53 14.7 °C 12.6 °C 1021.9 hPa ESE 2.1 km/h 4.7 km/h 87 % 0.0 mm
08:58 15.1 °C 12.8 °C 1021.9 hPa ESE 1.1 km/h 4.3 km/h 86 % 0.0 mm
09:03 15.6 °C 13.1 °C 1020.9 hPa ESE 1.6 km/h 4.7 km/h 85 % 0.0 mm
09:08 15.9 °C 13.2 °C 1020.9 hPa ESE 2.1 km/h 4.7 km/h 84 % 0.0 mm
09:13 16.2 °C 13.1 °C 1020.9 hPa ESE 1.6 km/h 4.7 km/h 82 % 0.0 mm
09:18 16.6 °C 13.5 °C 1020.9 hPa ESE 2.3 km/h 4.3 km/h 82 % 0.0 mm
09:23 16.8 °C 13.3 °C 1020.9 hPa ESE 2.6 km/h 4.7 km/h 80 % 0.0 mm
09:28 17.1 °C 13.4 °C 1020.9 hPa ESE 2.6 km/h 5.5 km/h 79 % 0.0 mm
09:33 17.5 °C 13.6 °C 1020.9 hPa ESE 1.9 km/h 5.5 km/h 78 % 0.0 mm
09:38 17.8 °C 13.9 °C 1020.9 hPa SE 1.4 km/h 4.7 km/h 78 % 0.0 mm
09:43 18.1 °C 14.0 °C 1020.9 hPa SE 1.9 km/h 4.7 km/h 77 % 0.0 mm
09:48 18.5 °C 14.2 °C 1021.9 hPa SE 2.6 km/h 6.1 km/h 76 % 0.0 mm
09:50 18.6 °C 14.3 °C 1021.9 hPa SE 2.9 km/h 6.1 km/h 76 % 0.0 mm
09:55 19.0 °C 14.3 °C 1021.9 hPa SE 2.6 km/h 6.1 km/h 74 % 0.0 mm
10:00 19.3 °C 14.1 °C 1021.9 hPa SSE 2.6 km/h 6.4 km/h 72 % 0.0 mm
10:05 19.7 °C 14.1 °C 1020.9 hPa SSE 3.5 km/h 6.4 km/h 70 % 0.0 mm
10:10 19.9 °C 13.6 °C 1020.9 hPa South 4.2 km/h 8.7 km/h 67 % 0.0 mm
10:15 20.1 °C 13.8 °C 1020.9 hPa SSE 4.0 km/h 8.7 km/h 67 % 0.0 mm
10:20 20.4 °C 13.6 °C 1020.9 hPa ESE 2.4 km/h 6.1 km/h 65 % 0.0 mm
10:25 20.5 °C 11.4 °C 1020.9 hPa ENE 3.2 km/h 11.6 km/h 56 % 0.0 mm
10:30 20.8 °C 11.2 °C 1020.9 hPa East 5.5 km/h 11.9 km/h 54 % 0.0 mm
10:35 21.0 °C 10.5 °C 1020.9 hPa ESE 7.2 km/h 16.9 km/h 51 % 0.0 mm
10:40 21.2 °C 9.7 °C 1020.9 hPa ESE 7.9 km/h 16.9 km/h 48 % 0.0 mm
10:45 21.3 °C 9.5 °C 1020.9 hPa East 6.8 km/h 13.0 km/h 47 % 0.0 mm
10:50 21.3 °C 9.5 °C 1021.9 hPa East 6.4 km/h 13.7 km/h 47 % 0.0 mm
10:55 21.4 °C 9.6 °C 1021.9 hPa ESE 7.6 km/h 13.7 km/h 47 % 0.0 mm
11:00 21.6 °C 9.5 °C 1021.9 hPa ESE 7.9 km/h 13.0 km/h 46 % 0.0 mm
11:05 21.7 °C 9.6 °C 1021.9 hPa East 6.6 km/h 12.6 km/h 46 % 0.0 mm
11:10 21.9 °C 10.1 °C 1021.9 hPa ENE 6.1 km/h 11.1 km/h 47 % 0.0 mm
11:15 21.9 °C 10.1 °C 1021.9 hPa East 5.1 km/h 10.5 km/h 47 % 0.0 mm
11:20 22.1 °C 9.9 °C 1021.9 hPa ESE 4.3 km/h 12.6 km/h 46 % 0.0 mm
11:25 22.2 °C 10.0 °C 1021.9 hPa ESE 3.5 km/h 12.6 km/h 46 % 0.0 mm
11:30 22.3 °C 10.1 °C 1021.9 hPa ESE 3.7 km/h 9.3 km/h 46 % 0.0 mm
11:32 22.3 °C 10.1 °C 1021.9 hPa ESE 4.0 km/h 9.3 km/h 46 % 0.0 mm
11:37 22.5 °C 10.3 °C 1021.9 hPa SE 6.1 km/h 10.1 km/h 46 % 0.0 mm
11:42 22.6 °C 10.4 °C 1021.9 hPa ESE 5.6 km/h 12.2 km/h 46 % 0.0 mm
11:43 22.6 °C 10.4 °C 1021.9 hPa ESE 5.6 km/h 12.2 km/h 46 % 0.0 mm
11:47 22.7 °C 10.2 °C 1021.9 hPa SE 5.3 km/h 12.2 km/h 45 % 0.0 mm
11:52 22.8 °C 10.2 °C 1021.9 hPa SE 5.8 km/h 10.5 km/h 45 % 0.0 mm
11:58 23.0 °C 10.4 °C 1021.9 hPa SE 6.9 km/h 12.2 km/h 45 % 0.0 mm
12:03 22.9 °C 10.3 °C 1021.9 hPa SE 6.8 km/h 12.2 km/h 45 % 0.0 mm
12:08 23.1 °C 10.5 °C 1021.9 hPa East 5.6 km/h 13.7 km/h 45 % 0.0 mm
12:13 23.1 °C 9.5 °C 1021.9 hPa East 5.8 km/h 13.7 km/h 42 % 0.0 mm
12:18 23.1 °C 9.8 °C 1021.9 hPa East 4.3 km/h 9.7 km/h 43 % 0.0 mm
12:23 23.2 °C 10.3 °C 1021.9 hPa East 3.9 km/h 7.6 km/h 44 % 0.0 mm
12:28 23.3 °C 10.3 °C 1021.9 hPa ESE 4.7 km/h 9.3 km/h 44 % 0.0 mm
12:33 23.5 °C 10.6 °C 1021.9 hPa ESE 5.3 km/h 10.1 km/h 44 % 0.0 mm
12:38 23.4 °C 10.1 °C 1021.9 hPa East 5.1 km/h 12.2 km/h 43 % 0.0 mm
12:43 23.6 °C 10.3 °C 1021.9 hPa East 5.5 km/h 12.2 km/h 43 % 0.0 mm
12:48 23.6 °C 9.9 °C 1021.9 hPa ESE 6.0 km/h 12.2 km/h 42 % 0.0 mm
12:53 23.9 °C 10.2 °C 1021.9 hPa ESE 6.1 km/h 10.1 km/h 42 % 0.0 mm
12:58 24.0 °C 10.3 °C 1021.9 hPa SE 6.1 km/h 9.3 km/h 42 % 0.0 mm
13:03 24.1 °C 10.0 °C 1020.9 hPa ESE 6.3 km/h 13.7 km/h 41 % 0.0 mm
13:08 23.9 °C 9.8 °C 1020.9 hPa East 6.3 km/h 16.3 km/h 41 % 0.0 mm
13:13 23.8 °C 9.8 °C 1020.9 hPa East 5.6 km/h 16.3 km/h 41 % 0.0 mm
13:18 23.9 °C 9.8 °C 1020.9 hPa ENE 5.6 km/h 13.0 km/h 41 % 0.0 mm
13:23 24.2 °C 10.1 °C 1020.9 hPa ENE 5.8 km/h 13.0 km/h 41 % 0.0 mm
13:28 23.9 °C 9.8 °C 1020.9 hPa ENE 5.3 km/h 10.5 km/h 41 % 0.0 mm
13:33 23.5 °C 9.1 °C 1020.9 hPa ENE 5.3 km/h 13.0 km/h 40 % 0.0 mm
13:38 23.2 °C 9.2 °C 1020.9 hPa East 6.3 km/h 13.7 km/h 41 % 0.0 mm
13:43 23.3 °C 9.3 °C 1020.9 hPa East 7.7 km/h 19.8 km/h 41 % 0.0 mm
13:48 23.1 °C 9.1 °C 1019.9 hPa East 6.4 km/h 19.8 km/h 41 % 0.0 mm
13:53 22.7 °C 8.4 °C 1019.9 hPa ENE 5.8 km/h 11.1 km/h 40 % 0.0 mm
13:58 22.6 °C 8.7 °C 1019.9 hPa ENE 5.6 km/h 11.1 km/h 41 % 0.0 mm
14:03 23.0 °C 9.1 °C 1019.9 hPa East 4.2 km/h 8.7 km/h 41 % 0.0 mm
14:08 23.4 °C 9.4 °C 1019.9 hPa ESE 4.8 km/h 9.7 km/h 41 % 0.0 mm
14:13 23.7 °C 9.7 °C 1019.9 hPa SE 4.5 km/h 9.7 km/h 41 % 0.0 mm
14:18 23.8 °C 9.4 °C 1019.9 hPa ESE 3.9 km/h 8.7 km/h 40 % 0.0 mm
14:25 23.8 °C 9.4 °C 1019.9 hPa ESE 3.5 km/h 5.5 km/h 40 % 0.0 mm
14:30 24.0 °C 9.6 °C 1019.9 hPa East 5.6 km/h 12.2 km/h 40 % 0.0 mm
14:35 23.9 °C 9.5 °C 1019.9 hPa East 5.8 km/h 12.2 km/h 40 % 0.0 mm
14:40 24.0 °C 9.2 °C 1019.9 hPa ESE 6.1 km/h 14.0 km/h 39 % 0.0 mm
14:45 24.3 °C 9.8 °C 1019.9 hPa ESE 6.4 km/h 14.0 km/h 40 % 0.0 mm
14:50 24.5 °C 10.0 °C 1019.9 hPa ESE 7.2 km/h 12.6 km/h 40 % 0.0 mm
14:55 24.4 °C 9.9 °C 1019.9 hPa ESE 8.0 km/h 14.0 km/h 40 % 0.0 mm
15:00 24.0 °C 9.2 °C 1019.9 hPa East 7.1 km/h 14.0 km/h 39 % 0.0 mm
15:05 23.9 °C 9.8 °C 1018.8 hPa East 5.0 km/h 11.9 km/h 41 % 0.0 mm
15:11 23.9 °C 9.5 °C 1018.8 hPa ENE 4.5 km/h 11.9 km/h 40 % 0.0 mm
15:16 23.8 °C 9.0 °C 1018.8 hPa NE 5.3 km/h 9.7 km/h 39 % 0.0 mm
15:21 23.7 °C 8.9 °C 1018.8 hPa NNE 5.1 km/h 9.7 km/h 39 % 0.0 mm
15:26 24.0 °C 9.2 °C 1018.8 hPa NNE 4.3 km/h 9.7 km/h 39 % 0.0 mm
15:31 24.2 °C 9.4 °C 1018.8 hPa ENE 4.7 km/h 9.7 km/h 39 % 0.0 mm
15:36 24.2 °C 9.4 °C 1019.9 hPa East 5.5 km/h 13.7 km/h 39 % 0.0 mm
15:41 24.3 °C 9.4 °C 1019.9 hPa ENE 6.0 km/h 13.7 km/h 39 % 0.0 mm
15:46 24.4 °C 9.6 °C 1019.9 hPa ENE 8.0 km/h 16.3 km/h 39 % 0.0 mm
15:51 24.3 °C 9.4 °C 1019.9 hPa ENE 8.2 km/h 16.3 km/h 39 % 0.0 mm
15:56 23.8 °C 9.0 °C 1019.9 hPa ENE 5.8 km/h 11.9 km/h 39 % 0.0 mm
16:01 23.9 °C 9.5 °C 1019.9 hPa East 4.3 km/h 7.9 km/h 40 % 0.0 mm
16:06 23.8 °C 9.4 °C 1019.9 hPa East 4.8 km/h 11.9 km/h 40 % 0.0 mm
16:11 23.7 °C 8.9 °C 1019.9 hPa NE 4.0 km/h 11.9 km/h 39 % 0.0 mm
16:16 23.7 °C 8.9 °C 1019.9 hPa NNE 3.1 km/h 9.3 km/h 39 % 0.0 mm
16:21 23.8 °C 9.0 °C 1019.9 hPa East 3.4 km/h 10.5 km/h 39 % 0.0 mm
16:26 24.0 °C 9.2 °C 1019.9 hPa East 4.3 km/h 13.0 km/h 39 % 0.0 mm
16:33 24.0 °C 9.2 °C 1019.9 hPa East 5.1 km/h 12.2 km/h 39 % 0.0 mm
16:39 23.7 °C 8.9 °C 1019.9 hPa East 6.3 km/h 12.2 km/h 39 % 0.0 mm
16:44 23.6 °C 8.8 °C 1019.9 hPa East 5.8 km/h 12.2 km/h 39 % 0.0 mm
16:49 23.6 °C 8.8 °C 1019.9 hPa East 5.6 km/h 10.8 km/h 39 % 0.0 mm
16:54 23.5 °C 8.3 °C 1019.9 hPa ENE 5.5 km/h 10.5 km/h 38 % 0.0 mm
16:59 23.6 °C 8.8 °C 1019.9 hPa ENE 4.2 km/h 10.1 km/h 39 % 0.0 mm
17:04 23.7 °C 8.9 °C 1019.9 hPa ENE 5.3 km/h 14.0 km/h 39 % 0.0 mm
17:09 23.7 °C 8.9 °C 1019.9 hPa ENE 6.8 km/h 14.0 km/h 39 % 0.0 mm
17:14 23.7 °C 8.9 °C 1019.9 hPa East 6.4 km/h 12.2 km/h 39 % 0.0 mm
17:19 23.5 °C 8.3 °C 1019.9 hPa East 4.8 km/h 12.2 km/h 38 % 0.0 mm
17:24 23.3 °C 7.8 °C 1019.9 hPa NE 3.7 km/h 9.7 km/h 37 % 0.0 mm
17:29 23.1 °C 7.6 °C 1019.9 hPa NE 4.7 km/h 9.7 km/h 37 % 0.0 mm
17:34 23.0 °C 7.5 °C 1019.9 hPa NNE 4.8 km/h 9.3 km/h 37 % 0.0 mm
17:39 23.1 °C 8.0 °C 1019.9 hPa NE 4.5 km/h 11.9 km/h 38 % 0.0 mm
17:40 23.1 °C 8.0 °C 1019.9 hPa ENE 4.5 km/h 11.9 km/h 38 % 0.0 mm
17:45 23.1 °C 8.0 °C 1019.9 hPa ENE 4.5 km/h 11.9 km/h 38 % 0.0 mm
17:50 23.0 °C 7.9 °C 1019.9 hPa East 4.8 km/h 9.7 km/h 38 % 0.0 mm
17:55 22.9 °C 8.2 °C 1019.9 hPa East 4.8 km/h 11.6 km/h 39 % 0.0 mm
18:00 22.6 °C 7.6 °C 1019.9 hPa ENE 4.7 km/h 11.6 km/h 38 % 0.0 mm
18:05 22.4 °C 7.8 °C 1019.9 hPa ENE 4.7 km/h 10.1 km/h 39 % 0.0 mm
18:10 22.2 °C 7.6 °C 1019.9 hPa East 4.8 km/h 10.5 km/h 39 % 0.0 mm
18:13 22.1 °C 7.5 °C 1019.9 hPa ENE 4.7 km/h 10.5 km/h 39 % 0.0 mm
18:18 21.9 °C 7.7 °C 1019.9 hPa ENE 4.2 km/h 9.0 km/h 40 % 0.0 mm
18:23 21.7 °C 7.5 °C 1019.9 hPa ENE 2.7 km/h 9.0 km/h 40 % 0.0 mm
18:28 21.5 °C 7.3 °C 1019.9 hPa East 1.1 km/h 4.7 km/h 40 % 0.0 mm
18:33 21.4 °C 7.6 °C 1019.9 hPa East 1.1 km/h 4.7 km/h 41 % 0.0 mm
18:38 21.2 °C 7.4 °C 1019.9 hPa ENE 1.9 km/h 8.7 km/h 41 % 0.0 mm
18:43 21.1 °C 6.9 °C 1019.9 hPa ENE 4.2 km/h 12.6 km/h 40 % 0.0 mm
18:48 21.0 °C 6.9 °C 1019.9 hPa ENE 6.1 km/h 12.6 km/h 40 % 0.0 mm
18:53 20.9 °C 7.2 °C 1019.9 hPa ENE 6.0 km/h 11.9 km/h 41 % 0.0 mm
18:58 20.7 °C 6.9 °C 1019.9 hPa ENE 3.2 km/h 11.1 km/h 41 % 0.0 mm
19:03 20.6 °C 7.2 °C 1018.8 hPa ENE 1.8 km/h 5.5 km/h 42 % 0.0 mm
19:09 20.3 °C 6.9 °C 1018.8 hPa ENE 1.8 km/h 5.5 km/h 42 % 0.0 mm
19:13 20.0 °C 7.1 °C 1018.8 hPa NE 2.1 km/h 6.1 km/h 43 % 0.0 mm
19:18 19.8 °C 7.2 °C 1018.8 hPa NE 2.7 km/h 6.1 km/h 44 % 0.0 mm
19:23 19.5 °C 7.6 °C 1018.8 hPa NNE 1.4 km/h 5.0 km/h 46 % 0.0 mm
19:29 19.1 °C 7.2 °C 1018.8 hPa Calm   1.8 km/h 46 % 0.0 mm
19:34 18.9 °C 7.3 °C 1018.8 hPa WSW 0.5 km/h 5.5 km/h 47 % 0.0 mm
19:39 18.4 °C 7.2 °C 1018.8 hPa West 1.1 km/h 5.5 km/h 48 % 0.0 mm
19:44 18.0 °C 7.7 °C 1018.8 hPa WNW 0.6 km/h 4.0 km/h 51 % 0.0 mm
19:49 17.8 °C 7.8 °C 1019.9 hPa Calm     52 % 0.0 mm
19:54 17.3 °C 7.9 °C 1019.9 hPa Calm     54 % 0.0 mm
19:59 16.9 °C 8.1 °C 1019.9 hPa Calm     56 % 0.0 mm
20:04 16.6 °C 8.3 °C 1019.9 hPa WNW 1.0 km/h 4.3 km/h 58 % 0.0 mm
20:09 16.3 °C 8.3 °C 1019.9 hPa WNW 1.0 km/h 4.3 km/h 59 % 0.0 mm
20:14 16.0 °C 8.0 °C 1019.9 hPa North 1.0 km/h 4.7 km/h 59 % 0.0 mm
20:19 15.8 °C 8.1 °C 1020.9 hPa North 1.0 km/h 4.7 km/h 60 % 0.0 mm
20:24 15.4 °C 8.2 °C 1020.9 hPa NNW 1.3 km/h 6.1 km/h 62 % 0.0 mm
20:29 15.2 °C 8.4 °C 1020.9 hPa NNE 1.9 km/h 6.1 km/h 64 % 0.0 mm
20:34 15.0 °C 8.2 °C 1020.9 hPa NE 1.0 km/h 3.5 km/h 64 % 0.0 mm
20:39 14.8 °C 8.3 °C 1020.9 hPa West 0.2 km/h 3.5 km/h 65 % 0.0 mm
20:44 14.5 °C 8.2 °C 1020.9 hPa Calm     66 % 0.0 mm
20:45 14.5 °C 8.2 °C 1020.9 hPa Calm     66 % 0.0 mm
20:50 14.3 °C 8.3 °C 1020.9 hPa Calm     67 % 0.0 mm
20:55 14.1 °C 8.1 °C 1020.9 hPa Calm     67 % 0.0 mm
21:00 13.9 °C 7.9 °C 1020.9 hPa Calm     67 % 0.0 mm
21:05 13.7 °C 8.1 °C 1021.9 hPa Calm   1.8 km/h 69 % 0.0 mm
21:10 13.6 °C 8.0 °C 1021.9 hPa Calm   1.8 km/h 69 % 0.0 mm
21:15 13.5 °C 8.1 °C 1021.9 hPa Calm     70 % 0.0 mm
21:20 13.3 °C 7.9 °C 1021.9 hPa Calm     70 % 0.0 mm
21:25 13.2 °C 7.8 °C 1021.9 hPa Calm     70 % 0.0 mm
21:30 13.0 °C 7.9 °C 1021.9 hPa Calm     71 % 0.0 mm
21:35 12.9 °C 7.9 °C 1021.9 hPa Calm     72 % 0.0 mm
21:40 12.8 °C 7.9 °C 1021.9 hPa Calm     72 % 0.0 mm
21:45 12.6 °C 7.7 °C 1021.9 hPa Calm     72 % 0.0 mm
21:50 12.5 °C 7.6 °C 1021.9 hPa Calm     72 % 0.0 mm
21:55 12.4 °C 7.7 °C 1021.9 hPa Calm     73 % 0.0 mm
22:00 12.3 °C 7.6 °C 1021.9 hPa Calm     73 % 0.0 mm
22:05 12.2 °C 7.7 °C 1021.9 hPa Calm     74 % 0.0 mm
22:10 12.1 °C 7.6 °C 1021.9 hPa Calm   1.8 km/h 74 % 0.0 mm
22:15 12.0 °C 7.5 °C 1021.9 hPa Calm   1.8 km/h 74 % 0.0 mm
22:20 11.8 °C 7.3 °C 1021.9 hPa Calm     74 % 0.0 mm
22:25 11.7 °C 7.4 °C 1021.9 hPa Calm     75 % 0.0 mm
22:30 11.7 °C 7.4 °C 1021.9 hPa Calm     75 % 0.0 mm
22:35 11.6 °C 7.3 °C 1021.9 hPa Calm     75 % 0.0 mm
22:40 11.5 °C 7.2 °C 1021.9 hPa West 0.2 km/h 2.6 km/h 75 % 0.0 mm
22:45 11.4 °C 7.3 °C 1021.9 hPa West 0.3 km/h 2.6 km/h 76 % 0.0 mm
22:50 11.3 °C 7.2 °C 1020.9 hPa West 0.2 km/h 2.1 km/h 76 % 0.0 mm
22:55 11.3 °C 7.2 °C 1020.9 hPa Calm     76 % 0.0 mm
23:00 11.1 °C 7.2 °C 1020.9 hPa Calm   1.4 km/h 77 % 0.0 mm
23:05 11.1 °C 7.2 °C 1022.9 hPa Calm   1.8 km/h 77 % 0.0 mm
23:10 11.0 °C 7.3 °C 1022.9 hPa Calm   1.8 km/h 78 % 0.0 mm
23:15 11.0 °C 7.5 °C 1022.9 hPa Calm     79 % 0.0 mm
23:20 10.9 °C 7.6 °C 1020.9 hPa Calm     80 % 0.0 mm
23:25 10.8 °C 7.5 °C 1020.9 hPa Calm     80 % 0.0 mm
23:30 10.7 °C 7.4 °C 1020.9 hPa Calm     80 % 0.0 mm
23:32 10.7 °C 7.4 °C 1021.9 hPa Calm     80 % 0.0 mm
23:37 10.6 °C 7.5 °C 1021.9 hPa Calm     81 % 0.0 mm
23:43 10.5 °C 7.4 °C 1021.9 hPa Calm     81 % 0.0 mm
23:48 10.5 °C 7.4 °C 1020.9 hPa Calm     81 % 0.0 mm
23:53 10.4 °C 7.1 °C 1020.9 hPa Calm     80 % 0.0 mm
23:58 10.3 °C 7.2 °C 1020.9 hPa Calm     81 % 0.0 mm
Vremenska postaja Senovo
Podatki zbrani iz Weather Underground - 3 mb

Script developed by  Jim McMurry - jmcmurry@mwt.net Adapted for the template by  Wim van der Kuil - Leuven-Template.eu

Vremenski podatki so objavljeni na:

WeatherCloud

Weather Underground

AWEKAS

HAMweather, WeatherForYou, PWS Weather

MapView

Geostik

Slovenia weather network

Oprema, ki se uporablja:

Vremenski program
Cumulus

Cumulus